Time;durP1;ratioP1;P1;durP2;ratioP2;P2;SDS_P1;SDS_P2;PMS_P1;PMS_P2;Temp;Humidity;BMP_temperature;BMP_pressure;BME280_temperature;BME280_humidity;BME280_pressure;Samples;Min_cycle;Max_cycle;Signal;HPM_P1;HPM_P2
2021/06/24 00:00:46;;;;;;;13.17;8.93;;;16.40;82.50;;;;;;5059528;28;20408;-78
2021/06/24 00:03:13;;;;;;;14.20;9.70;;;16.30;82.40;;;;;;5051880;28;20961;-76
2021/06/24 00:05:40;;;;;;;12.50;9.80;;;16.30;82.50;;;;;;5033208;28;20400;-77
2021/06/24 00:08:08;;;;;;;20.43;10.37;;;16.30;82.70;;;;;;5051096;28;20797;-76
2021/06/24 00:10:34;;;;;;;16.50;9.13;;;16.30;82.80;;;;;;5033754;28;20459;-78
2021/06/24 00:13:00;;;;;;;17.50;9.20;;;16.30;83.00;;;;;;5033870;28;20514;-77
2021/06/24 00:15:26;;;;;;;13.87;9.40;;;16.20;83.00;;;;;;5034273;28;20973;-77
2021/06/24 00:17:52;;;;;;;14.27;10.20;;;16.20;83.10;;;;;;5050912;28;20570;-77
2021/06/24 00:20:18;;;;;;;20.93;9.70;;;16.20;83.10;;;;;;5050828;28;20494;-77
2021/06/24 00:22:43;;;;;;;14.53;10.07;;;16.20;83.30;;;;;;5051041;28;20162;-77
2021/06/24 00:25:10;;;;;;;15.13;9.03;;;16.20;83.40;;;;;;5018215;28;20174;-77
2021/06/24 00:27:35;;;;;;;12.07;9.03;;;16.20;83.50;;;;;;5030797;28;20274;-76
2021/06/24 00:30:01;;;;;;;13.60;8.73;;;16.10;83.50;;;;;;5013235;28;20512;-77
2021/06/24 00:32:28;;;;;;;12.83;9.70;;;16.10;83.60;;;;;;5031367;28;20356;-77
2021/06/24 00:34:59;;;;;;;13.60;10.20;;;16.10;83.60;;;;;;5031243;28;20175;-77
2021/06/24 00:37:25;;;;;;;14.43;10.53;;;16.10;83.70;;;;;;5030973;28;20439;-76
2021/06/24 00:39:51;;;;;;;14.13;9.20;;;16.10;83.70;;;;;;5012963;28;20413;-76
2021/06/24 00:42:18;;;;;;;15.57;9.97;;;16.20;83.70;;;;;;5029509;28;20178;-77
2021/06/24 00:44:43;;;;;;;12.10;9.33;;;16.10;83.70;;;;;;5031458;28;20535;-77
2021/06/24 00:47:09;;;;;;;11.20;8.87;;;16.10;83.70;;;;;;5030236;28;20421;-78
2021/06/24 00:49:35;;;;;;;9.40;8.00;;;16.10;83.80;;;;;;5031288;28;20639;-78
2021/06/24 00:52:01;;;;;;;12.60;9.13;;;16.10;83.80;;;;;;5029403;28;20419;-76
2021/06/24 00:54:28;;;;;;;12.30;8.70;;;16.20;84.00;;;;;;5030873;28;20166;-78
2021/06/24 00:56:54;;;;;;;14.20;8.00;;;16.20;83.90;;;;;;5029041;28;20960;-77
2021/06/24 00:59:21;;;;;;;13.90;9.00;;;16.20;83.70;;;;;;5029468;28;20578;-77
2021/06/24 01:01:46;;;;;;;18.63;8.60;;;16.30;83.60;;;;;;5032038;28;20930;-77
2021/06/24 01:04:19;;;;;;;17.90;9.73;;;16.30;83.50;;;;;;5013393;28;20508;-78
2021/06/24 01:06:45;;;;;;;10.93;8.63;;;16.30;83.30;;;;;;5012687;28;20217;-75
2021/06/24 01:09:12;;;;;;;15.37;9.10;;;16.40;83.00;;;;;;5029631;28;20421;-76
2021/06/24 01:11:37;;;;;;;12.00;7.90;;;16.40;82.90;;;;;;5013238;28;20427;-77
2021/06/24 01:14:04;;;;;;;10.60;8.43;;;16.40;82.80;;;;;;5030956;28;20588;-76
2021/06/24 01:16:29;;;;;;;10.03;7.70;;;16.40;82.70;;;;;;5032458;28;20491;-77
2021/06/24 01:18:55;;;;;;;9.77;8.77;;;16.40;82.70;;;;;;5014154;28;20174;-77
2021/06/24 01:21:22;;;;;;;9.90;7.90;;;16.40;82.40;;;;;;5013757;28;20169;-77
2021/06/24 01:23:48;;;;;;;11.80;8.90;;;16.50;82.50;;;;;;5016531;28;20461;-76
2021/06/24 01:26:16;;;;;;;10.20;7.83;;;16.50;82.40;;;;;;5034609;28;20440;-76
2021/06/24 01:28:43;;;;;;;13.00;8.27;;;16.50;82.50;;;;;;5042515;28;20397;-77
2021/06/24 01:31:11;;;;;;;10.30;7.80;;;16.50;82.40;;;;;;5033716;28;20397;-77
2021/06/24 01:33:37;;;;;;;10.70;8.77;;;16.40;82.30;;;;;;5034639;28;20419;-76
2021/06/24 01:36:05;;;;;;;13.73;8.17;;;16.40;82.50;;;;;;5033800;28;20420;-77
2021/06/24 01:38:36;;;;;;;14.53;8.30;;;16.40;82.70;;;;;;5032868;28;20424;-77
2021/06/24 01:41:13;;;;;;;15.60;9.63;;;16.40;82.80;;;;;;5016732;28;20416;-77
2021/06/24 01:43:42;;;;;;;19.73;8.20;;;16.40;83.00;;;;;;4999341;28;20775;-76
2021/06/24 01:46:09;;;;;;;10.40;7.70;;;16.40;83.10;;;;;;5016409;28;20437;-76
2021/06/24 01:48:35;;;;;;;14.53;8.37;;;16.40;83.20;;;;;;5034387;28;20459;-76
2021/06/24 01:51:03;;;;;;;16.70;7.77;;;16.40;83.20;;;;;;5033764;28;20167;-77
2021/06/24 01:53:29;;;;;;;12.50;9.50;;;16.40;83.00;;;;;;5016209;28;20419;-77
2021/06/24 01:55:59;;;;;;;10.60;8.00;;;16.40;82.80;;;;;;5032491;28;20491;-77
2021/06/24 01:58:27;;;;;;;8.77;7.33;;;16.40;82.80;;;;;;5016655;28;20416;-78
2021/06/24 02:01:15;;;;;;;8.63;7.73;;;16.50;82.90;;;;;;5032553;28;20759;-76
2021/06/24 02:03:47;;;;;;;11.30;8.40;;;16.50;82.70;;;;;;5016986;28;20479;-76
2021/06/24 02:06:15;;;;;;;14.03;8.50;;;16.50;82.60;;;;;;5031878;28;20520;-77
2021/06/24 02:08:43;;;;;;;13.47;8.10;;;16.50;82.50;;;;;;5033369;28;20401;-75
2021/06/24 02:11:38;;;;;;;13.27;7.60;;;16.50;82.30;;;;;;5024330;28;20444;-77
2021/06/24 02:14:06;;;;;;;11.93;7.87;;;16.50;82.30;;;;;;5033665;28;20663;-76
2021/06/24 02:16:34;;;;;;;8.70;7.20;;;16.50;82.30;;;;;;5032789;28;20806;-76
2021/06/24 02:18:59;;;;;;;9.60;7.40;;;16.50;82.20;;;;;;5017622;28;20413;-77
2021/06/24 02:21:47;;;;;;;8.57;7.23;;;16.50;82.40;;;;;;5034058;28;20420;-77
2021/06/24 02:24:15;;;;;;;12.10;8.83;;;16.50;82.30;;;;;;5032083;28;20453;-77
2021/06/24 02:26:49;;;;;;;11.93;7.83;;;16.50;82.40;;;;;;5016581;28;20425;-76
2021/06/24 02:29:49;;;;;;;12.80;9.30;;;16.50;82.40;;;;;;5019345;28;20421;-77
2021/06/24 02:32:16;;;;;;;10.10;8.10;;;16.50;82.30;;;;;;5016221;28;20421;-77
2021/06/24 02:34:48;;;;;;;12.57;8.10;;;16.50;82.30;;;;;;5033425;28;20417;-77
2021/06/24 02:37:25;;;;;;;10.47;7.97;;;16.40;82.20;;;;;;5031715;28;20431;-77
2021/06/24 02:40:12;;;;;;;9.50;8.43;;;16.50;82.50;;;;;;5032643;28;20401;-76
2021/06/24 02:42:40;;;;;;;10.33;8.90;;;16.50;82.60;;;;;;5033210;28;20748;-78
2021/06/24 02:45:10;;;;;;;13.83;8.43;;;16.50;83.20;;;;;;5033258;28;20425;-78
2021/06/24 02:47:37;;;;;;;10.50;7.10;;;16.50;82.20;;;;;;5015286;28;20439;-77
2021/06/24 02:50:06;;;;;;;12.97;8.53;;;16.50;82.20;;;;;;5016168;28;20507;-77
2021/06/24 02:52:33;;;;;;;8.63;7.67;;;16.50;82.10;;;;;;5034541;28;20402;-75
2021/06/24 02:55:00;;;;;;;12.67;9.20;;;16.60;82.10;;;;;;5016502;28;20798;-77
2021/06/24 02:57:37;;;;;;;8.67;7.83;;;16.60;82.10;;;;;;5031532;28;20952;-77
2021/06/24 03:00:23;;;;;;;8.87;7.20;;;16.60;82.10;;;;;;5025354;28;20914;-77
2021/06/24 03:03:09;;;;;;;14.83;8.90;;;16.60;82.00;;;;;;5032636;28;20452;-77
2021/06/24 03:05:53;;;;;;;10.73;8.17;;;16.60;82.10;;;;;;5031029;28;20440;-77
2021/06/24 03:08:21;;;;;;;9.37;8.33;;;16.60;82.00;;;;;;5031887;28;20606;-75
2021/06/24 03:11:00;;;;;;;14.90;7.53;;;16.60;81.90;;;;;;5016955;28;20416;-77
2021/06/24 03:13:28;;;;;;;11.30;8.27;;;16.60;82.00;;;;;;5032755;28;20421;-77
2021/06/24 03:15:53;;;;;;;13.40;8.47;;;16.60;82.00;;;;;;5033449;28;20428;-78
2021/06/24 03:18:19;;;;;;;18.90;9.00;;;16.70;82.00;;;;;;5015946;28;20401;-77
2021/06/24 03:20:45;;;;;;;15.03;9.07;;;16.70;82.00;;;;;;5032632;28;20508;-77
2021/06/24 03:23:12;;;;;;;13.10;9.60;;;16.70;81.90;;;;;;5014940;28;20679;-77
2021/06/24 03:25:42;;;;;;;12.20;8.87;;;16.70;82.00;;;;;;5030616;28;20413;-77
2021/06/24 03:28:09;;;;;;;12.30;8.90;;;16.70;82.00;;;;;;5030461;28;20413;-77
2021/06/24 03:30:41;;;;;;;15.50;10.10;;;16.70;82.10;;;;;;5016202;28;20385;-77
2021/06/24 03:33:09;;;;;;;13.50;10.00;;;16.60;82.00;;;;;;5031789;28;20409;-77
2021/06/24 03:35:35;;;;;;;14.27;9.37;;;16.60;82.30;;;;;;5032128;28;20424;-77
2021/06/24 03:38:01;;;;;;;15.10;9.50;;;16.50;82.40;;;;;;5030703;28;20413;-78
2021/06/24 03:40:28;;;;;;;11.53;9.97;;;16.50;82.70;;;;;;5015605;28;20420;-77
2021/06/24 03:42:57;;;;;;;9.40;7.57;;;16.60;82.80;;;;;;5032602;28;21041;-77
2021/06/24 03:45:23;;;;;;;14.10;9.23;;;16.60;82.80;;;;;;5030844;28;20484;-77
2021/06/24 03:47:49;;;;;;;14.67;8.83;;;16.60;82.80;;;;;;5013576;28;20445;-77
2021/06/24 03:50:15;;;;;;;13.70;9.37;;;16.60;82.70;;;;;;5031580;28;20405;-77
2021/06/24 03:52:45;;;;;;;15.10;8.80;;;16.60;82.70;;;;;;5030422;28;20166;-77
2021/06/24 03:55:12;;;;;;;16.70;9.23;;;16.60;83.00;;;;;;5015488;28;20440;-77
2021/06/24 03:57:38;;;;;;;16.00;10.57;;;16.60;83.00;;;;;;5015380;28;20535;-78
2021/06/24 04:00:17;;;;;;;14.63;11.17;;;16.60;82.90;;;;;;5017099;28;20780;-79
2021/06/24 04:02:46;;;;;;;14.03;9.93;;;16.60;83.00;;;;;;5032840;28;20489;-77
2021/06/24 04:05:21;;;;;;;12.33;8.80;;;16.60;82.90;;;;;;5047625;28;20416;-77
2021/06/24 04:07:51;;;;;;;16.60;9.77;;;16.60;83.00;;;;;;5031683;28;20467;-76
2021/06/24 04:10:16;;;;;;;15.37;9.00;;;16.60;82.80;;;;;;5031796;28;20397;-77
2021/06/24 04:12:42;;;;;;;15.37;11.10;;;16.60;83.10;;;;;;5014868;28;20607;-78
2021/06/24 04:15:26;;;;;;;14.77;8.67;;;16.60;83.20;;;;;;5014610;28;20194;-77
2021/06/24 04:17:52;;;;;;;14.17;9.50;;;16.60;83.30;;;;;;5032962;28;20444;-77
2021/06/24 04:20:20;;;;;;;13.10;10.30;;;16.60;83.20;;;;;;5033899;28;20419;-76
2021/06/24 04:22:46;;;;;;;15.23;10.27;;;16.70;83.20;;;;;;5033897;28;20932;-76
2021/06/24 04:25:21;;;;;;;16.73;9.00;;;16.70;83.30;;;;;;5034001;28;20416;-78
2021/06/24 04:27:50;;;;;;;12.70;9.93;;;16.70;83.10;;;;;;5034072;28;20507;-77
2021/06/24 04:30:19;;;;;;;13.20;10.33;;;16.70;83.00;;;;;;5052016;28;20401;-77
2021/06/24 04:32:47;;;;;;;13.10;10.20;;;16.80;82.80;;;;;;5053037;28;20739;-76
2021/06/24 04:35:17;;;;;;;11.97;10.27;;;16.90;82.50;;;;;;5037973;28;20400;-77
2021/06/24 04:37:44;;;;;;;15.07;10.77;;;16.90;82.50;;;;;;5051538;28;20431;-77
2021/06/24 04:40:12;;;;;;;14.10;9.03;;;17.00;82.50;;;;;;5034038;28;20469;-78
2021/06/24 04:42:50;;;;;;;15.10;9.50;;;17.00;82.20;;;;;;5037235;28;20500;-78
2021/06/24 04:45:18;;;;;;;18.70;9.73;;;17.00;81.90;;;;;;5033820;28;20439;-77
2021/06/24 04:47:52;;;;;;;16.03;11.13;;;17.10;81.70;;;;;;5018662;28;20432;-77
2021/06/24 04:50:18;;;;;;;15.00;9.93;;;17.10;81.70;;;;;;5009919;28;20779;-77
2021/06/24 04:52:50;;;;;;;16.63;10.57;;;17.10;82.70;;;;;;5036868;28;20440;-78
2021/06/24 04:55:23;;;;;;;16.27;10.23;;;17.20;81.70;;;;;;5034828;28;20494;-77
2021/06/24 04:57:51;;;;;;;14.20;10.40;;;17.20;81.30;;;;;;5021257;28;20540;-78
2021/06/24 05:00:43;;;;;;;17.63;12.00;;;17.30;81.40;;;;;;5032732;28;20827;-78
2021/06/24 05:03:29;;;;;;;12.37;10.90;;;17.30;81.20;;;;;;5056948;28;20494;-77
2021/06/24 05:05:59;;;;;;;13.30;9.37;;;17.30;80.90;;;;;;5038276;28;20448;-77
2021/06/24 05:08:28;;;;;;;20.87;11.30;;;17.30;80.80;;;;;;5058970;28;20434;-77
2021/06/24 05:10:53;;;;;;;13.47;11.10;;;17.30;80.90;;;;;;5059388;28;20470;-77
2021/06/24 05:13:19;;;;;;;11.43;9.43;;;17.30;80.90;;;;;;5042121;28;20424;-76
2021/06/24 05:15:56;;;;;;;20.57;10.80;;;17.30;81.00;;;;;;5057435;28;20192;-77
2021/06/24 05:18:22;;;;;;;12.77;10.47;;;17.30;80.90;;;;;;5026399;28;20178;-76
2021/06/24 05:20:48;;;;;;;20.13;11.50;;;17.30;81.00;;;;;;5048892;28;20431;-77
2021/06/24 05:23:15;;;;;;;19.83;11.53;;;17.30;80.90;;;;;;5057189;28;20192;-78
2021/06/24 05:25:42;;;;;;;13.50;10.23;;;17.30;81.00;;;;;;5058928;28;20169;-77
2021/06/24 05:28:08;;;;;;;15.30;12.40;;;17.30;81.10;;;;;;5040774;28;20405;-76
2021/06/24 05:30:34;;;;;;;16.43;11.10;;;17.30;81.40;;;;;;5030872;28;20977;-77
2021/06/24 05:33:01;;;;;;;16.73;12.23;;;17.30;81.30;;;;;;5054105;28;20255;-76
2021/06/24 05:35:27;;;;;;;15.70;11.97;;;17.30;81.20;;;;;;5036125;28;20469;-76
2021/06/24 05:37:53;;;;;;;15.50;10.30;;;17.40;81.30;;;;;;5041810;28;20447;-75
2021/06/24 05:40:19;;;;;;;18.47;11.23;;;17.40;81.20;;;;;;5057348;28;20408;-76
2021/06/24 05:42:44;;;;;;;16.03;11.43;;;17.40;81.10;;;;;;5035953;28;20170;-77
2021/06/24 05:45:11;;;;;;;13.17;11.07;;;17.40;81.00;;;;;;5053771;28;20636;-76
2021/06/24 05:47:36;;;;;;;15.23;11.70;;;17.40;80.80;;;;;;5052416;28;20190;-77
2021/06/24 05:50:03;;;;;;;12.87;9.53;;;17.40;81.20;;;;;;5048184;28;20508;-76
2021/06/24 05:52:29;;;;;;;18.10;11.60;;;17.40;81.30;;;;;;5036299;28;20165;-76
2021/06/24 05:54:54;;;;;;;18.03;11.67;;;17.40;81.40;;;;;;5054176;28;20443;-77
2021/06/24 05:57:20;;;;;;;17.57;11.83;;;17.40;81.30;;;;;;5052827;28;20208;-76
2021/06/24 05:59:46;;;;;;;17.40;11.27;;;17.50;81.40;;;;;;5050309;28;20716;-76
2021/06/24 06:02:12;;;;;;;16.73;13.37;;;17.50;81.40;;;;;;5050833;28;20170;-77
2021/06/24 06:04:37;;;;;;;14.37;11.93;;;17.50;81.10;;;;;;5053576;28;20444;-77
2021/06/24 06:07:03;;;;;;;17.57;12.00;;;17.50;80.90;;;;;;5050157;28;20716;-77
2021/06/24 06:09:29;;;;;;;16.17;10.80;;;17.60;81.00;;;;;;5035457;28;20166;-75
2021/06/24 06:11:55;;;;;;;17.57;11.73;;;17.60;80.70;;;;;;5053041;28;20777;-76
2021/06/24 06:14:20;;;;;;;20.43;12.33;;;17.60;80.60;;;;;;5035714;28;20177;-77
2021/06/24 06:16:47;;;;;;;14.50;12.33;;;17.70;80.80;;;;;;5038318;28;20193;-78
2021/06/24 06:19:13;;;;;;;18.30;12.87;;;17.70;80.60;;;;;;5031592;28;20162;-74
2021/06/24 06:21:39;;;;;;;19.20;12.00;;;17.70;80.50;;;;;;5049057;28;21028;-74
2021/06/24 06:24:05;;;;;;;20.20;13.00;;;17.80;80.70;;;;;;5047998;28;20504;-74
2021/06/24 06:26:31;;;;;;;17.83;11.53;;;17.80;80.30;;;;;;5031343;28;20471;-75
2021/06/24 06:29:04;;;;;;;20.77;12.00;;;17.80;80.00;;;;;;5032853;28;20444;-75
2021/06/24 06:31:32;;;;;;;25.60;13.37;;;17.80;80.00;;;;;;5052785;28;20526;-74
2021/06/24 06:33:58;;;;;;;15.20;12.20;;;17.90;80.10;;;;;;5051525;28;20489;-75
2021/06/24 06:36:27;;;;;;;14.90;12.60;;;17.90;79.80;;;;;;5036056;28;20459;-75
2021/06/24 06:38:52;;;;;;;20.73;12.83;;;17.90;80.20;;;;;;5052656;28;20417;-75
2021/06/24 06:41:19;;;;;;;16.13;12.30;;;17.90;79.80;;;;;;5052630;28;20420;-75
2021/06/24 06:43:44;;;;;;;17.60;13.97;;;17.90;79.60;;;;;;5052519;28;20698;-76
2021/06/24 06:46:10;;;;;;;17.03;13.23;;;18.00;79.50;;;;;;5052605;28;20440;-76
2021/06/24 06:48:36;;;;;;;17.83;13.30;;;18.00;79.40;;;;;;5052363;28;20174;-74
2021/06/24 06:51:02;;;;;;;19.60;13.43;;;18.10;79.20;;;;;;5052454;28;20166;-73
2021/06/24 06:53:27;;;;;;;20.97;14.17;;;18.20;78.20;;;;;;5051448;28;20201;-74
2021/06/24 06:55:53;;;;;;;20.83;12.80;;;18.20;78.30;;;;;;5018173;28;20450;-76
2021/06/24 06:58:19;;;;;;;20.17;14.07;;;18.20;78.60;;;;;;5017541;28;20269;-75
2021/06/24 07:00:45;;;;;;;18.00;12.90;;;18.30;78.30;;;;;;5017552;28;20501;-75
2021/06/24 07:03:11;;;;;;;16.87;13.73;;;18.40;77.50;;;;;;5034404;28;20682;-74
2021/06/24 07:05:37;;;;;;;20.90;13.53;;;18.40;77.40;;;;;;5024302;28;20655;-75
2021/06/24 07:08:02;;;;;;;16.97;13.43;;;18.50;77.70;;;;;;5052337;28;20592;-75
2021/06/24 07:10:28;;;;;;;22.93;15.07;;;18.60;77.60;;;;;;5054325;28;20168;-76
2021/06/24 07:12:54;;;;;;;23.97;16.90;;;18.60;76.80;;;;;;5054272;28;20238;-76
2021/06/24 07:15:20;;;;;;;24.90;18.77;;;18.60;76.80;;;;;;5036384;28;20172;-76
2021/06/24 07:17:46;;;;;;;24.43;15.73;;;18.70;77.20;;;;;;5057414;28;20195;-74
2021/06/24 07:20:12;;;;;;;21.67;14.03;;;18.80;76.20;;;;;;5055747;28;20435;-75
2021/06/24 07:22:38;;;;;;;19.50;14.73;;;18.90;75.70;;;;;;5034265;28;20235;-74
2021/06/24 07:25:06;;;;;;;20.30;14.67;;;18.90;75.30;;;;;;5052857;28;20473;-74
2021/06/24 07:27:33;;;;;;;23.40;12.83;;;19.00;75.30;;;;;;5040418;28;20448;-77
2021/06/24 07:29:59;;;;;;;19.73;14.63;;;19.10;74.70;;;;;;5055402;28;20431;-75
2021/06/24 07:32:25;;;;;;;24.17;16.40;;;19.10;74.60;;;;;;5036824;28;20502;-75
2021/06/24 07:34:53;;;;;;;20.77;13.80;;;19.10;74.10;;;;;;5051337;28;20162;-75
2021/06/24 07:37:19;;;;;;;23.37;15.37;;;19.00;74.50;;;;;;5032411;28;20452;-76
2021/06/24 07:39:45;;;;;;;24.83;14.33;;;18.90;74.90;;;;;;5034529;28;20405;-75
2021/06/24 07:42:10;;;;;;;24.33;15.13;;;18.80;75.70;;;;;;5034426;28;20579;-74
2021/06/24 07:44:36;;;;;;;21.90;15.00;;;18.80;76.20;;;;;;5033502;28;20659;-76
2021/06/24 07:47:02;;;;;;;25.00;16.07;;;18.70;76.50;;;;;;5059054;28;20185;-75
2021/06/24 07:49:28;;;;;;;19.17;14.97;;;18.70;76.60;;;;;;5057218;28;20171;-75
2021/06/24 07:51:57;;;;;;;24.03;17.93;;;18.70;76.60;;;;;;5051348;28;20435;-75
2021/06/24 07:54:25;;;;;;;19.77;15.83;;;18.70;76.00;;;;;;5035747;28;20212;-78
2021/06/24 07:56:51;;;;;;;71.07;45.30;;;18.70;76.30;;;;;;5016864;28;20526;-76
2021/06/24 07:59:16;;;;;;;21.43;15.37;;;18.80;76.40;;;;;;5033054;28;21048;-74
2021/06/24 08:01:42;;;;;;;23.80;14.77;;;18.80;75.80;;;;;;5051975;28;20178;-76
2021/06/24 08:04:10;;;;;;;20.80;14.97;;;18.90;75.40;;;;;;5053431;28;20198;-76
2021/06/24 08:06:39;;;;;;;17.50;14.47;;;18.90;75.70;;;;;;5035303;28;21070;-78
2021/06/24 08:09:07;;;;;;;20.70;14.97;;;18.90;75.50;;;;;;5052923;28;20428;-77
2021/06/24 08:11:36;;;;;;;21.23;13.57;;;19.10;75.20;;;;;;5034665;28;20429;-76
2021/06/24 08:14:02;;;;;;;27.33;14.87;;;19.20;75.00;;;;;;5053102;28;20410;-77
2021/06/24 08:16:31;;;;;;;23.40;14.50;;;19.30;74.30;;;;;;5051907;28;20433;-77
2021/06/24 08:19:00;;;;;;;20.10;15.77;;;19.50;74.40;;;;;;5035432;28;20170;-75
2021/06/24 08:21:28;;;;;;;19.33;13.63;;;19.70;72.70;;;;;;5053609;28;20479;-77
2021/06/24 08:23:57;;;;;;;18.10;14.50;;;19.80;73.30;;;;;;5034720;28;20483;-77
2021/06/24 08:26:23;;;;;;;21.37;14.80;;;20.10;71.80;;;;;;5051681;28;20432;-76
2021/06/24 08:28:48;;;;;;;21.13;15.47;;;20.40;70.80;;;;;;5051896;28;20419;-76
2021/06/24 08:31:17;;;;;;;18.27;15.53;;;20.60;70.10;;;;;;5052444;28;20173;-74
2021/06/24 08:33:43;;;;;;;19.80;14.83;;;20.70;68.50;;;;;;5062188;28;20219;-76
2021/06/24 08:36:09;;;;;;;19.73;15.40;;;20.70;68.40;;;;;;5072978;28;20528;-75
2021/06/24 08:38:41;;;;;;;34.57;25.60;;;20.80;67.90;;;;;;5062383;28;20184;-75
2021/06/24 08:41:07;;;;;;;87.93;68.73;;;21.00;67.50;;;;;;5060353;28;20446;-76
2021/06/24 08:43:33;;;;;;;17.17;14.83;;;21.10;67.10;;;;;;5022133;28;20540;-77
2021/06/24 08:46:03;;;;;;;19.73;14.97;;;21.40;66.70;;;;;;5031867;28;20819;-75
2021/06/24 08:48:34;;;;;;;20.80;14.80;;;21.80;65.30;;;;;;5058044;28;20446;-78
2021/06/24 08:51:00;;;;;;;18.33;16.40;;;22.00;64.20;;;;;;5052287;28;20473;-78
2021/06/24 08:53:27;;;;;;;19.60;16.17;;;22.10;62.40;;;;;;5037671;28;20451;-78
2021/06/24 08:55:55;;;;;;;17.50;14.60;;;22.00;63.00;;;;;;5018960;28;20937;-77
2021/06/24 08:58:27;;;;;;;20.23;14.40;;;22.00;62.90;;;;;;5022624;28;20431;-77
2021/06/24 09:00:56;;;;;;;17.83;15.10;;;22.00;63.10;;;;;;5057735;28;20937;-76
2021/06/24 09:03:24;;;;;;;23.70;15.83;;;22.00;62.20;;;;;;5039811;28;20490;-75
2021/06/24 09:06:00;;;;;;;20.93;16.10;;;21.80;62.80;;;;;;5024012;28;20874;-76
2021/06/24 09:08:36;;;;;;;24.13;17.63;;;21.50;63.30;;;;;;5022933;28;20493;-76
2021/06/24 09:11:18;;;;;;;21.80;16.50;;;21.20;64.30;;;;;;5058496;28;20480;-76
2021/06/24 09:13:58;;;;;;;20.57;17.50;;;20.90;65.60;;;;;;5058055;28;20420;-76
2021/06/24 09:16:27;;;;;;;22.27;17.20;;;20.70;66.80;;;;;;5041305;28;20493;-76
2021/06/24 09:19:20;;;;;;;17.07;15.20;;;20.60;68.00;;;;;;5057938;28;20955;-75
2021/06/24 09:22:01;;;;;;;20.73;16.57;;;20.80;68.00;;;;;;5027548;28;20487;-78
2021/06/24 09:24:39;;;;;;;18.97;16.47;;;21.00;67.10;;;;;;5041350;28;20860;-75
2021/06/24 09:27:26;;;;;;;19.40;16.60;;;21.40;65.70;;;;;;5038168;28;20453;-76
2021/06/24 09:30:01;;;;;;;17.33;13.67;;;21.60;64.60;;;;;;5057262;28;20579;-78
2021/06/24 09:32:42;;;;;;;18.70;14.93;;;21.90;64.50;;;;;;5060686;28;20494;-76
2021/06/24 09:35:19;;;;;;;22.77;16.57;;;22.20;63.30;;;;;;5061149;28;20404;-76
2021/06/24 09:38:09;;;;;;;22.23;16.30;;;22.40;62.70;;;;;;5061611;28;20424;-77
2021/06/24 09:40:49;;;;;;;18.57;16.53;;;22.40;61.60;;;;;;5062886;28;20416;-76
2021/06/24 09:43:27;;;;;;;17.83;14.80;;;22.40;62.10;;;;;;5062427;28;20479;-76
2021/06/24 09:46:15;;;;;;;16.10;13.50;;;22.40;61.60;;;;;;5060976;28;20423;-77
2021/06/24 09:48:42;;;;;;;20.80;14.80;;;22.40;61.30;;;;;;5035936;28;20409;-76
2021/06/24 09:51:09;;;;;;;18.57;14.53;;;22.20;61.60;;;;;;5038422;28;20612;-77
2021/06/24 09:53:47;;;;;;;19.23;15.90;;;22.10;62.30;;;;;;5054910;28;20408;-76
2021/06/24 09:56:33;;;;;;;18.10;14.27;;;22.00;62.60;;;;;;5024633;28;20510;-76
2021/06/24 09:59:03;;;;;;;18.23;13.73;;;22.10;63.00;;;;;;5035850;28;20410;-76
2021/06/24 10:01:41;;;;;;;18.93;15.27;;;22.10;63.20;;;;;;5054202;28;20420;-76
2021/06/24 10:04:31;;;;;;;17.33;14.10;;;22.40;62.10;;;;;;5054890;28;20447;-77
2021/06/24 10:06:59;;;;;;;16.47;14.40;;;22.70;60.90;;;;;;5036557;28;20794;-76
2021/06/24 10:09:27;;;;;;;16.90;13.70;;;23.10;61.10;;;;;;5056158;28;20408;-77
2021/06/24 10:11:53;;;;;;;16.70;14.93;;;23.60;59.00;;;;;;5054891;28;20462;-77
2021/06/24 10:14:20;;;;;;;32.17;14.67;;;24.00;57.50;;;;;;5054101;28;20478;-77
2021/06/24 10:17:03;;;;;;;16.87;12.60;;;24.30;57.20;;;;;;5055132;28;20421;-77
2021/06/24 10:19:37;;;;;;;13.37;11.97;;;24.50;56.70;;;;;;5019909;28;20420;-77
2021/06/24 10:22:18;;;;;;;15.57;14.00;;;24.50;56.10;;;;;;5057258;28;20474;-77
2021/06/24 10:24:59;;;;;;;15.70;13.20;;;24.60;56.00;;;;;;5054651;28;20460;-77
2021/06/24 10:27:31;;;;;;;19.03;14.90;;;24.50;55.80;;;;;;5035860;28;20420;-78
2021/06/24 10:30:10;;;;;;;16.23;12.70;;;24.50;55.70;;;;;;5036189;28;20544;-77
2021/06/24 10:32:36;;;;;;;23.73;16.50;;;24.30;56.00;;;;;;5053802;28;20439;-77
2021/06/24 10:35:29;;;;;;;16.23;14.47;;;24.00;56.30;;;;;;5057804;28;20579;-76
2021/06/24 10:37:56;;;;;;;15.90;13.00;;;23.70;56.60;;;;;;5052605;28;20444;-74
2021/06/24 10:40:29;;;;;;;65.13;55.77;;;23.70;57.50;;;;;;5055873;28;20405;-76
2021/06/24 10:42:57;;;;;;;18.50;12.40;;;23.70;57.80;;;;;;5054439;28;20404;-75
2021/06/24 10:45:25;;;;;;;15.03;13.33;;;23.80;57.70;;;;;;5020089;28;20439;-76
2021/06/24 10:47:54;;;;;;;17.27;12.80;;;23.80;57.30;;;;;;5054899;28;20432;-76
2021/06/24 10:50:30;;;;;;;15.53;11.57;;;23.70;57.30;;;;;;5020876;28;20987;-75
2021/06/24 10:52:59;;;;;;;19.13;13.63;;;23.70;58.10;;;;;;5050494;28;21274;-75
2021/06/24 10:55:34;;;;;;;15.23;12.17;;;23.70;57.10;;;;;;5050939;28;20416;-76
2021/06/24 10:58:00;;;;;;;15.03;11.50;;;23.70;57.80;;;;;;5052213;28;20411;-76
2021/06/24 11:00:36;;;;;;;17.87;13.07;;;23.70;57.60;;;;;;5052534;28;20405;-77
2021/06/24 11:03:08;;;;;;;12.73;11.17;;;23.80;57.30;;;;;;5036840;28;20407;-76
2021/06/24 11:05:43;;;;;;;17.53;11.47;;;23.80;57.10;;;;;;5035623;28;20455;-76
2021/06/24 11:08:12;;;;;;;14.83;11.43;;;23.90;57.00;;;;;;5054721;28;20597;-76
2021/06/24 11:10:54;;;;;;;16.70;12.80;;;23.90;57.00;;;;;;5053294;28;20413;-76
2021/06/24 11:13:41;;;;;;;11.23;9.60;;;23.90;57.10;;;;;;5054851;28;20558;-77
2021/06/24 11:16:10;;;;;;;13.13;10.30;;;23.80;56.60;;;;;;5052014;28;20482;-76
2021/06/24 11:18:36;;;;;;;11.27;10.10;;;23.80;56.90;;;;;;5034228;28;20477;-76
2021/06/24 11:21:07;;;;;;;13.20;9.43;;;23.80;56.90;;;;;;5053259;28;20409;-77
2021/06/24 11:23:45;;;;;;;13.80;10.40;;;23.80;56.80;;;;;;5051945;28;20201;-75
2021/06/24 11:26:13;;;;;;;14.37;10.00;;;23.80;56.60;;;;;;5034265;28;20455;-75
2021/06/24 11:29:01;;;;;;;12.47;10.00;;;23.80;57.00;;;;;;5059554;28;20408;-76
2021/06/24 11:31:33;;;;;;;10.03;8.90;;;23.90;56.50;;;;;;5051811;28;20773;-75
2021/06/24 11:34:51;;;;;;;11.57;10.37;;;24.00;56.30;;;;;;5035548;28;20816;-76
2021/06/24 11:37:00;;;;;;;9.30;8.27;;;24.00;56.90;;;;;;5045251;28;20424;-75
2021/06/24 11:39:35;;;;;;;9.57;8.57;;;24.00;56.70;;;;;;5046367;28;20413;-76
2021/06/24 11:42:13;;;;;;;14.00;8.73;;;23.90;56.90;;;;;;5052449;28;20427;-77
2021/06/24 11:44:46;;;;;;;10.30;9.30;;;23.90;56.80;;;;;;5050969;28;20890;-76
2021/06/24 11:47:25;;;;;;;8.87;7.20;;;23.90;57.30;;;;;;5070781;28;20443;-76
2021/06/24 12:01:59;;;;;;;13.60;10.53;;;24.10;56.60;;;;;;5048097;28;20423;-77
2021/06/24 12:04:33;;;;;;;10.53;9.47;;;24.20;56.00;;;;;;5050266;28;20566;-77
2021/06/24 12:07:09;;;;;;;11.13;9.33;;;24.20;56.20;;;;;;5032715;28;20995;-75
2021/06/24 12:09:42;;;;;;;12.93;9.90;;;24.20;55.80;;;;;;5034490;28;20526;-76
2021/06/24 12:12:26;;;;;;;10.53;9.17;;;24.30;55.90;;;;;;5054062;28;20553;-76
2021/06/24 12:14:58;;;;;;;12.80;9.23;;;24.50;55.60;;;;;;5052366;28;20908;-76
2021/06/24 12:17:33;;;;;;;10.73;8.70;;;24.50;55.10;;;;;;5037330;28;20431;-77
2021/06/24 12:20:13;;;;;;;9.57;7.87;;;24.50;55.00;;;;;;5019086;28;20451;-76
2021/06/24 12:22:58;;;;;;;10.80;9.17;;;24.30;54.70;;;;;;5052561;28;20439;-76
2021/06/24 12:25:32;;;;;;;16.73;9.10;;;24.00;55.70;;;;;;5038959;28;20459;-76
2021/06/24 12:28:04;;;;;;;8.97;8.07;;;23.90;56.00;;;;;;5066135;28;20439;-77
2021/06/24 12:30:30;;;;;;;8.90;8.00;;;23.80;56.50;;;;;;5051023;28;20703;-78
2021/06/24 12:33:11;;;;;;;7.70;6.90;;;23.70;57.00;;;;;;5037230;28;20483;-77
2021/06/24 12:35:53;;;;;;;9.80;6.83;;;23.50;57.40;;;;;;5023308;28;20423;-78
2021/06/24 12:38:23;;;;;;;8.87;6.77;;;23.40;58.00;;;;;;5072323;28;20511;-77
2021/06/24 12:41:18;;;;;;;8.00;6.20;;;23.30;58.50;;;;;;5039515;28;20423;-76
2021/06/24 12:43:44;;;;;;;9.30;8.30;;;23.20;59.50;;;;;;5017118;28;20462;-76
2021/06/24 12:46:13;;;;;;;10.77;7.93;;;23.10;58.50;;;;;;5037824;28;20929;-77
2021/06/24 12:48:43;;;;;;;8.43;7.17;;;23.00;58.30;;;;;;5055043;28;20256;-76
2021/06/24 12:51:15;;;;;;;7.63;6.73;;;23.10;58.70;;;;;;5033432;28;20400;-78
2021/06/24 12:53:44;;;;;;;6.83;6.17;;;23.10;58.80;;;;;;5011185;28;20751;-76
2021/06/24 12:56:29;;;;;;;9.33;7.07;;;23.10;58.40;;;;;;5057221;28;20495;-76
2021/06/24 12:59:14;;;;;;;7.87;7.10;;;23.00;58.60;;;;;;5050570;28;20408;-76
2021/06/24 13:01:43;;;;;;;7.80;6.17;;;23.00;58.70;;;;;;5053089;28;20495;-76